createdAt,value
2022-12-04T00:00:57.644Z,3.40
2022-12-04T00:04:59.656Z,3.40
2022-12-04T00:09:01.508Z,3.30
2022-12-04T00:13:03.333Z,3.20
2022-12-04T00:17:05.129Z,3.20
2022-12-04T00:21:08.650Z,3.30
2022-12-04T00:25:11.893Z,3.30
2022-12-04T00:29:13.917Z,3.20
2022-12-04T00:33:15.761Z,3.20
2022-12-04T00:37:17.526Z,3.20
2022-12-04T00:41:22.417Z,3.20
2022-12-04T00:45:24.296Z,3.10
2022-12-04T00:49:26.124Z,3.10
2022-12-04T00:53:27.978Z,3.20
2022-12-04T00:57:29.810Z,3.10
2022-12-04T01:01:31.786Z,3.10
2022-12-04T01:05:39.596Z,3.10
2022-12-04T01:09:41.351Z,3.10
2022-12-04T01:13:43.215Z,3.10
2022-12-04T01:17:45.616Z,3.10
2022-12-04T01:21:47.545Z,3.20
2022-12-04T01:25:57.428Z,3.20
2022-12-04T01:29:59.402Z,3.20
2022-12-04T01:34:01.283Z,3.40
2022-12-04T01:38:03.128Z,3.30
2022-12-04T01:42:05.235Z,3.40
2022-12-04T01:46:07.694Z,3.30
2022-12-04T01:50:10.198Z,3.30
2022-12-04T01:54:31.584Z,3.30
2022-12-04T01:58:47.456Z,3.40
2022-12-04T02:02:49.387Z,3.40
2022-12-04T02:06:51.412Z,3.30
2022-12-04T02:11:26.501Z,3.40
2022-12-04T02:15:52.151Z,3.40
2022-12-04T02:20:37.141Z,3.40
2022-12-04T02:24:56.146Z,3.40
2022-12-04T02:29:23.763Z,3.40
2022-12-04T02:34:04.014Z,3.50
2022-12-04T02:38:27.255Z,3.40
2022-12-04T02:42:43.792Z,3.40
2022-12-04T02:46:48.043Z,3.40
2022-12-04T02:50:51.308Z,3.50
2022-12-04T02:54:57.477Z,3.60
2022-12-04T02:59:05.908Z,3.80
2022-12-04T03:03:11.936Z,3.80
2022-12-04T03:07:24.537Z,3.70
2022-12-04T03:11:33.575Z,3.70
2022-12-04T03:16:08.553Z,3.70
2022-12-04T03:20:23.523Z,3.60
2022-12-04T03:24:33.306Z,3.60
2022-12-04T03:29:07.667Z,3.60
2022-12-04T03:33:25.664Z,3.60
2022-12-04T03:37:54.738Z,3.60
2022-12-04T03:42:02.295Z,3.60
2022-12-04T03:46:08.312Z,3.60
2022-12-04T03:50:19.060Z,3.60
2022-12-04T03:54:50.215Z,3.60
2022-12-04T03:59:05.174Z,3.60
2022-12-04T04:03:32.439Z,3.60
2022-12-04T04:07:44.638Z,3.50
2022-12-04T04:11:57.561Z,3.60
2022-12-04T04:16:17.768Z,3.60
2022-12-04T04:20:42.961Z,3.60
2022-12-04T04:24:48.555Z,3.60
2022-12-04T04:28:50.352Z,3.60
2022-12-04T04:33:06.754Z,3.60
2022-12-04T04:37:41.195Z,3.70
2022-12-04T04:42:10.756Z,3.80
2022-12-04T04:46:22.738Z,3.80
2022-12-04T04:50:24.618Z,3.70
2022-12-04T04:54:26.425Z,3.60
2022-12-04T04:58:28.232Z,3.60
2022-12-04T05:02:30.222Z,3.70
2022-12-04T05:06:32.357Z,3.70
2022-12-04T05:10:34.171Z,3.70
2022-12-04T05:14:35.982Z,3.70
2022-12-04T05:18:37.974Z,3.80
2022-12-04T05:22:39.800Z,3.90
2022-12-04T05:26:41.774Z,3.90
2022-12-04T05:30:43.582Z,3.80
2022-12-04T05:34:48.734Z,4.00
2022-12-04T05:38:50.593Z,3.90
2022-12-04T05:42:52.384Z,3.80
2022-12-04T05:46:54.321Z,3.80
2022-12-04T05:50:56.450Z,3.80
2022-12-04T05:54:58.240Z,3.80
2022-12-04T05:59:00.087Z,3.80
2022-12-04T06:03:02.007Z,3.80
2022-12-04T06:07:04.114Z,3.80
2022-12-04T06:11:13.932Z,3.80
2022-12-04T06:15:15.814Z,3.70
2022-12-04T06:19:19.323Z,3.80
2022-12-04T06:23:21.114Z,3.80
2022-12-04T06:27:28.497Z,3.80
2022-12-04T06:31:30.817Z,3.80
2022-12-04T06:35:37.383Z,3.90
2022-12-04T06:39:47.048Z,3.90
2022-12-04T06:48:10.208Z,4.10
2022-12-04T06:57:51.318Z,4.30
2022-12-04T07:01:53.163Z,4.20
2022-12-04T07:05:55.007Z,4.30
2022-12-04T07:09:57.030Z,4.30
2022-12-04T07:14:00.792Z,4.30
2022-12-04T07:18:02.943Z,4.20
2022-12-04T07:22:11.641Z,4.20
2022-12-04T07:26:13.947Z,4.20
2022-12-04T07:30:16.286Z,4.20
2022-12-04T07:34:18.316Z,4.30
2022-12-04T07:38:20.150Z,4.40
2022-12-04T07:42:24.227Z,4.30
2022-12-04T07:46:27.423Z,4.30
2022-12-04T07:50:29.492Z,4.30
2022-12-04T07:54:31.503Z,4.30
2022-12-04T07:58:33.546Z,4.40
2022-12-04T08:02:38.360Z,4.40
2022-12-04T08:06:40.443Z,4.50
2022-12-04T08:10:42.354Z,4.60
2022-12-04T08:14:44.158Z,4.50
2022-12-04T08:18:48.553Z,4.70
2022-12-04T08:22:50.765Z,4.60
2022-12-04T08:26:52.700Z,4.70
2022-12-04T08:30:54.747Z,4.90
2022-12-04T08:34:56.713Z,5.00
2022-12-04T08:38:59.367Z,5.00
2022-12-04T08:43:01.348Z,5.00
2022-12-04T08:47:03.329Z,5.10
2022-12-04T08:51:07.772Z,5.20
2022-12-04T08:55:10.006Z,5.20
2022-12-04T08:59:12.837Z,5.30
2022-12-04T09:03:19.295Z,5.30
2022-12-04T09:07:21.175Z,5.40
2022-12-04T09:11:25.755Z,5.40
2022-12-04T09:15:27.750Z,5.40
2022-12-04T09:19:31.259Z,5.40
2022-12-04T09:23:34.320Z,5.20
2022-12-04T09:27:37.854Z,5.30
2022-12-04T09:31:39.854Z,5.40
2022-12-04T09:35:41.777Z,5.40
2022-12-04T09:39:44.088Z,5.50
2022-12-04T09:44:05.914Z,5.60
2022-12-04T09:48:22.486Z,5.60
2022-12-04T09:53:23.343Z,5.70
2022-12-04T09:57:42.461Z,5.80
2022-12-04T10:02:09.321Z,5.90
2022-12-04T10:06:54.527Z,5.90
2022-12-04T10:11:32.366Z,6.00
2022-12-04T10:16:01.963Z,6.00
2022-12-04T10:20:18.308Z,5.90
2022-12-04T10:24:47.353Z,6.00
2022-12-04T10:28:55.787Z,5.90
2022-12-04T10:33:26.155Z,6.00
2022-12-04T10:37:28.018Z,6.10
2022-12-04T10:42:00.030Z,6.10
2022-12-04T10:46:02.220Z,6.10
2022-12-04T10:50:14.142Z,6.10
2022-12-04T10:54:36.639Z,6.30
2022-12-04T10:58:41.538Z,6.30
2022-12-04T11:02:43.585Z,6.30
2022-12-04T11:06:45.522Z,6.40
2022-12-04T11:10:56.418Z,6.40
2022-12-04T11:15:07.156Z,6.50
2022-12-04T11:19:32.585Z,6.50
2022-12-04T11:23:42.519Z,6.50
2022-12-04T11:27:55.912Z,6.60
2022-12-04T11:32:01.433Z,6.60
2022-12-04T11:36:47.209Z,6.60
2022-12-04T11:40:54.275Z,6.60
2022-12-04T11:45:18.324Z,6.60
2022-12-04T11:49:24.372Z,6.60
2022-12-04T11:53:57.869Z,6.70
2022-12-04T11:58:17.558Z,6.70
2022-12-04T12:03:03.454Z,6.80
2022-12-04T12:07:36.519Z,6.80
2022-12-04T12:12:24.485Z,6.90
2022-12-04T12:17:15.585Z,6.90
2022-12-04T12:21:50.193Z,6.90
2022-12-04T12:26:12.157Z,7.00
2022-12-04T12:30:20.324Z,7.00
2022-12-04T12:34:48.734Z,7.00
2022-12-04T12:39:02.668Z,7.00
2022-12-04T12:43:22.902Z,7.00
2022-12-04T12:47:39.319Z,7.10
2022-12-04T12:51:58.534Z,7.00
2022-12-04T12:56:02.513Z,7.10
2022-12-04T13:00:13.987Z,7.10
2022-12-04T13:04:51.517Z,7.10
2022-12-04T13:09:30.134Z,7.00
2022-12-04T13:13:39.180Z,6.90
2022-12-04T13:17:46.303Z,6.80
2022-12-04T13:22:21.553Z,6.80
2022-12-04T13:27:03.671Z,6.90
2022-12-04T13:31:35.561Z,6.90
2022-12-04T13:36:21.429Z,7.00
2022-12-04T13:41:11.757Z,6.90
2022-12-04T13:45:29.898Z,6.80
2022-12-04T13:49:36.815Z,6.90
2022-12-04T13:53:40.581Z,6.90
2022-12-04T13:58:01.928Z,7.00
2022-12-04T14:02:48.669Z,7.00
2022-12-04T14:06:53.693Z,7.00
2022-12-04T14:11:12.900Z,7.00
2022-12-04T14:15:24.830Z,7.10
2022-12-04T14:19:52.433Z,7.30
2022-12-04T14:23:55.270Z,7.40
2022-12-04T14:27:57.815Z,7.20
2022-12-04T14:32:14.060Z,7.10
2022-12-04T14:36:24.860Z,6.90
2022-12-04T14:40:29.634Z,6.80
2022-12-04T14:44:31.828Z,6.80
2022-12-04T14:49:08.422Z,6.80
2022-12-04T14:53:29.159Z,6.70
2022-12-04T14:57:41.163Z,6.60
2022-12-04T15:01:43.131Z,6.60
2022-12-04T15:05:46.401Z,6.50
2022-12-04T15:10:16.766Z,6.50
2022-12-04T15:14:21.074Z,6.40
2022-12-04T15:18:25.761Z,6.40
2022-12-04T15:22:28.514Z,6.40
2022-12-04T15:26:32.624Z,6.50
2022-12-04T15:30:37.994Z,6.60
2022-12-04T15:34:48.038Z,6.60
2022-12-04T15:38:49.862Z,6.60
2022-12-04T15:42:51.993Z,6.70
2022-12-04T15:47:02.560Z,6.70
2022-12-04T15:51:06.345Z,6.60
2022-12-04T15:55:08.847Z,6.50
2022-12-04T15:59:17.129Z,6.60
2022-12-04T16:03:43.446Z,6.60
2022-12-04T16:07:57.424Z,6.50
2022-12-04T16:12:01.972Z,6.50
2022-12-04T16:16:10.320Z,6.50
2022-12-04T16:20:12.581Z,6.50
2022-12-04T16:24:14.425Z,6.50
2022-12-04T16:28:21.010Z,6.50
2022-12-04T16:32:30.790Z,6.60
2022-12-04T16:36:32.689Z,6.60
2022-12-04T16:40:38.978Z,6.70
2022-12-04T16:44:47.005Z,6.70
2022-12-04T16:48:52.275Z,6.80
2022-12-04T16:53:22.082Z,6.80
2022-12-04T16:57:23.871Z,6.80
2022-12-04T17:01:29.902Z,6.70
2022-12-04T17:05:41.725Z,6.70
2022-12-04T17:10:07.156Z,6.70
2022-12-04T17:14:09.340Z,6.80
2022-12-04T17:18:15.064Z,6.80
2022-12-04T17:22:23.282Z,6.90
2022-12-04T17:26:25.274Z,6.90
2022-12-04T17:30:31.370Z,6.90
2022-12-04T17:34:36.425Z,6.80
2022-12-04T17:38:40.766Z,6.80
2022-12-04T17:42:42.776Z,6.90
2022-12-04T17:46:45.472Z,6.90
2022-12-04T17:50:48.003Z,6.90
2022-12-04T17:54:50.470Z,6.90
2022-12-04T17:58:52.419Z,6.90
2022-12-04T18:02:54.403Z,7.00
2022-12-04T18:06:59.178Z,7.00
2022-12-04T18:11:04.412Z,7.00
2022-12-04T18:15:06.963Z,7.00
2022-12-04T18:19:28.644Z,7.00
2022-12-04T18:23:33.168Z,7.10
2022-12-04T18:27:42.441Z,7.20
2022-12-04T18:31:45.125Z,7.30
2022-12-04T18:35:59.354Z,7.50
2022-12-04T18:40:06.365Z,7.50
2022-12-04T18:44:09.238Z,7.40
2022-12-04T18:48:12.857Z,7.20
2022-12-04T18:52:14.968Z,7.00
2022-12-04T18:56:23.167Z,6.80
2022-12-04T19:00:34.437Z,6.90
2022-12-04T19:04:36.362Z,7.00
2022-12-04T19:08:43.556Z,7.00
2022-12-04T19:12:45.881Z,7.20
2022-12-04T19:16:47.921Z,7.10
2022-12-04T19:20:50.064Z,7.00
2022-12-04T19:24:52.047Z,7.00
2022-12-04T19:28:57.326Z,7.20
2022-12-04T19:32:59.353Z,7.40
2022-12-04T19:37:02.084Z,7.60
2022-12-04T19:41:15.132Z,7.70
2022-12-04T19:45:17.223Z,7.70
2022-12-04T19:49:19.646Z,7.80
2022-12-04T19:53:21.624Z,7.80
2022-12-04T19:57:23.774Z,7.80
2022-12-04T20:01:28.416Z,7.90
2022-12-04T20:05:30.371Z,7.80
2022-12-04T20:09:32.214Z,7.90
2022-12-04T20:13:40.272Z,7.90
2022-12-04T20:17:42.191Z,7.90
2022-12-04T20:21:44.728Z,7.90
2022-12-04T20:25:46.614Z,7.90
2022-12-04T20:29:48.602Z,7.90
2022-12-04T20:33:54.657Z,8.00
2022-12-04T20:37:56.762Z,7.90
2022-12-04T20:41:58.815Z,8.00
2022-12-04T20:46:01.124Z,8.00
2022-12-04T20:50:05.940Z,8.10
2022-12-04T20:54:08.952Z,8.00
2022-12-04T20:58:10.873Z,8.10
2022-12-04T21:02:12.856Z,8.00
2022-12-04T21:06:23.017Z,8.10
2022-12-04T21:10:25.082Z,8.10
2022-12-04T21:14:48.565Z,8.10
2022-12-04T21:18:50.385Z,8.10
2022-12-04T21:22:55.330Z,8.10
2022-12-04T21:26:57.479Z,8.10
2022-12-04T21:31:03.942Z,8.10
2022-12-04T21:35:06.527Z,8.10
2022-12-04T21:39:08.599Z,8.10
2022-12-04T21:43:10.525Z,8.10
2022-12-04T21:47:13.470Z,8.10
2022-12-04T21:51:32.992Z,8.00
2022-12-04T21:55:37.118Z,8.00
2022-12-04T21:59:39.210Z,8.00
2022-12-04T22:03:41.081Z,8.00
2022-12-04T22:07:43.139Z,8.00
2022-12-04T22:11:45.168Z,8.00
2022-12-04T22:15:47.206Z,8.10
2022-12-04T22:19:49.146Z,8.10
2022-12-04T22:23:58.818Z,8.10
2022-12-04T22:28:00.712Z,8.10
2022-12-04T22:32:02.716Z,8.10
2022-12-04T22:36:07.478Z,8.00
2022-12-04T22:40:10.402Z,8.10
2022-12-04T22:44:12.225Z,8.00
2022-12-04T22:48:14.111Z,8.00
2022-12-04T22:52:16.040Z,8.00
2022-12-04T22:56:31.588Z,8.00
2022-12-04T23:00:33.414Z,8.00
2022-12-04T23:04:35.260Z,7.90
2022-12-04T23:08:38.095Z,7.90
2022-12-04T23:12:39.952Z,7.80
2022-12-04T23:16:42.224Z,7.80
2022-12-04T23:20:44.269Z,7.80
2022-12-04T23:24:48.586Z,7.80
2022-12-04T23:28:50.437Z,7.80
2022-12-04T23:32:52.323Z,7.80
2022-12-04T23:36:54.316Z,7.80
2022-12-04T23:41:17.828Z,7.90
2022-12-04T23:45:19.720Z,7.80
2022-12-04T23:49:21.504Z,7.80
2022-12-04T23:53:24.708Z,7.90
2022-12-04T23:57:29.990Z,7.90
